Список аэропортов
Фактическая погода:

15:00
Температура: -12°C
Ветер: юго-восточный 3 м/с
Видимость: 10 км
Давление: 763 мм рт. ст.
1016.8 гПа (-1.8)

Облачность: 7-8/0
перистые
выше 2,5 км
Время (МСК)Темп. СВетерВлажностьДавлениеОблачностьОсадки
09:00+5ЮЗ, 1 м/с79%1027 гПаясно
10:00+7ЮЗ, 1 м/с65%1026 гПаясно
11:00+10ЮЗ, 2 м/с56%1026 гПаясно
12:00+11З, 3 м/с49%1026 гПаясно
13:00+11ЮЗ, 3 м/с47%1026 гПаясно
14:00+12ЮЗ, 3 м/с47%1025 гПаясно
15:00+11ЮЗ, 3 м/с49%1025 гПаясно
16:00+10ЮЗ, 2 м/с52%1024 гПаясно
17:00+8Ю, 2 м/с64%1024 гПаясно
18:00+7Ю, 2 м/с71%1024 гПас прояснениями
19:00+6Ю, 2 м/с74%1023 гПас прояснениями
20:00+6Ю, 2 м/с76%1023 гПамалооблачно
21:00+6Ю, 2 м/с80%1023 гПамалооблачно
22:00+5Ю, 2 м/с86%1023 гПаясно
23:00+4Ю, 2 м/с91%1022 гПаясно
19 октября
00:00+4Ю, 2 м/с94%1022 гПаясно
01:00+3Ю, 2 м/с96%1022 гПаясно
02:00+3Ю, 2 м/с96%1021 гПаясно
03:00+3Ю, 2 м/с97%1021 гПаясно
04:00+3Ю, 2 м/с97%1020 гПаясно
05:00+4Ю, 3 м/с97%1020 гПаясно
06:00+4Ю, 3 м/с97%1020 гПаясно
07:00+5Ю, 3 м/с97%1019 гПаясно
08:00+6Ю, 3 м/с94%1019 гПаясно
09:00+9Ю, 3 м/с87%1019 гПаясно
10:00+11Ю, 4 м/с76%1018 гПаясно
11:00+14ЮЗ, 4 м/с64%1018 гПаясно
12:00+15ЮЗ, 5 м/с57%1018 гПаясно
13:00+16ЮЗ, 5 м/с54%1018 гПаясно
14:00+16ЮЗ, 5 м/с54%1017 гПаясно
15:00+16ЮЗ, 5 м/с56%1017 гПаясно
16:00+15Ю, 4 м/с61%1017 гПас прояснениями
17:00+13Ю, 3 м/с68%1017 гПаясно
18:00+12Ю, 4 м/с72%1017 гПаясно
19:00+12Ю, 4 м/с74%1017 гПаясно
20:00+12Ю, 4 м/с74%1016 гПамалооблачно
21:00+12Ю, 4 м/с75%1016 гПас прояснениями
22:00+12Ю, 5 м/с76%1016 гПаоблачно
23:00+11Ю, 5 м/с80%1016 гПаоблачно
20 октября
00:00+11Ю, 4 м/с80%1015 гПаоблачно
01:00+11Ю, 4 м/с81%1015 гПаоблачно
02:00+10Ю, 4 м/с82%1015 гПаоблачно
03:00+10Ю, 4 м/с83%1014 гПаоблачно
04:00+9Ю, 3 м/с84%1014 гПаоблачно
05:00+9Ю, 3 м/с84%1014 гПаоблачно
06:00+9Ю, 3 м/с83%1013 гПаоблачно
07:00+8Ю, 3 м/с83%1013 гПаоблачно
08:00+9Ю, 3 м/с80%1013 гПамалооблачно
09:00+10Ю, 4 м/с72%1012 гПаоблачно